Beccles, United Kingdom
Current Conditions -  °F | °C
As of 4:50 PM on Sunday 21 Dec 2014 (Local Time) from EGSD Reporting Station
Broken Clouds Broken Clouds  
Wind Chill: 50°   Ceiling: 1500
Heat Index: 50°   Visibility: 6mi
Dew Point: 46°   Wind: 21mph
Humidity: 87%   Direction: 240°WSW
Pressure: 30.09"   Gusts: NA
Location:  52.45°N, 1.56°E
Report Text: EGSD 211650Z 24018KT 9999 BKN015 10/08 Q1019
Loading
Personal Weather Stations






























Interactive Weather Map New forecast layout! Learn more

10-Day Weather Forecast

Advertisements
Track Severe Weather on mobile